sensor_id;sensor_type;location;lat;lon;timestamp;P1;P4;P2;P0;N10;N4;N25;N1;N05;TS
65988;SPS30;53592;51.402;6.054;2022-12-29T00:01:39;1.30;1.30;1.30;1.23;9.82;9.81;9.81;9.78;8.59;0.47
65988;SPS30;53592;51.402;6.054;2022-12-29T00:04:05;1.36;1.36;1.36;1.28;10.26;10.26;10.25;10.23;8.98;0.47
65988;SPS30;53592;51.402;6.054;2022-12-29T00:06:32;1.40;1.40;1.40;1.32;10.57;10.57;10.57;10.54;9.26;0.48
65988;SPS30;53592;51.402;6.054;2022-12-29T00:08:57;1.42;1.42;1.42;1.34;10.74;10.74;10.73;10.70;9.40;0.47
65988;SPS30;53592;51.402;6.054;2022-12-29T00:11:25;1.30;1.30;1.30;1.22;9.78;9.78;9.78;9.75;8.56;0.48
65988;SPS30;53592;51.402;6.054;2022-12-29T00:13:52;1.35;1.35;1.35;1.28;10.20;10.19;10.19;10.16;8.93;0.49
65988;SPS30;53592;51.402;6.054;2022-12-29T00:16:36;1.28;1.28;1.28;1.21;9.68;9.68;9.67;9.65;8.47;0.48
65988;SPS30;53592;51.402;6.054;2022-12-29T00:19:03;1.42;1.42;1.42;1.35;10.75;10.74;10.74;10.71;9.41;0.48
65988;SPS30;53592;51.402;6.054;2022-12-29T00:21:30;1.39;1.39;1.39;1.32;10.51;10.51;10.51;10.48;9.21;0.48
65988;SPS30;53592;51.402;6.054;2022-12-29T00:24:15;1.31;1.31;1.31;1.24;9.90;9.90;9.90;9.87;8.67;0.50
65988;SPS30;53592;51.402;6.054;2022-12-29T00:29:50;1.29;1.29;1.29;1.22;9.75;9.75;9.74;9.72;8.53;0.49
65988;SPS30;53592;51.402;6.054;2022-12-29T00:32:34;1.32;1.32;1.32;1.25;9.96;9.96;9.96;9.93;8.72;0.48
65988;SPS30;53592;51.402;6.054;2022-12-29T00:35:38;1.11;1.11;1.11;1.05;8.41;8.41;8.41;8.38;7.37;0.48
65988;SPS30;53592;51.402;6.054;2022-12-29T00:38:09;1.15;1.15;1.15;1.09;8.71;8.71;8.71;8.68;7.63;0.48
65988;SPS30;53592;51.402;6.054;2022-12-29T00:40:54;1.31;1.31;1.31;1.24;9.87;9.87;9.87;9.84;8.64;0.48
65988;SPS30;53592;51.402;6.054;2022-12-29T00:43:38;1.17;1.17;1.17;1.11;8.84;8.84;8.84;8.81;7.74;0.47
65988;SPS30;53592;51.402;6.054;2022-12-29T00:46:22;1.14;1.14;1.14;1.08;8.61;8.61;8.60;8.58;7.54;0.46
65988;SPS30;53592;51.402;6.054;2022-12-29T00:48:48;1.12;1.12;1.12;1.05;8.42;8.42;8.42;8.40;7.38;0.45
65988;SPS30;53592;51.402;6.054;2022-12-29T00:51:32;0.98;0.98;0.98;0.93;7.41;7.40;7.40;7.38;6.48;0.46
65988;SPS30;53592;51.402;6.054;2022-12-29T00:53:57;1.14;1.14;1.14;1.07;8.58;8.58;8.57;8.55;7.51;0.45
65988;SPS30;53592;51.402;6.054;2022-12-29T00:56:22;1.04;1.04;1.04;0.99;7.89;7.89;7.88;7.86;6.91;0.45
65988;SPS30;53592;51.402;6.054;2022-12-29T00:58:48;1.04;1.04;1.04;0.98;7.82;7.82;7.81;7.79;6.85;0.46
65988;SPS30;53592;51.402;6.054;2022-12-29T01:01:13;1.09;1.09;1.09;1.03;8.25;8.25;8.25;8.23;7.23;0.46
65988;SPS30;53592;51.402;6.054;2022-12-29T01:03:39;1.07;1.07;1.07;1.01;8.09;8.09;8.08;8.06;7.08;0.47
65988;SPS30;53592;51.402;6.054;2022-12-29T01:06:08;1.13;1.13;1.13;1.07;8.53;8.53;8.53;8.50;7.47;0.46
65988;SPS30;53592;51.402;6.054;2022-12-29T01:08:35;1.01;1.01;1.01;0.96;7.65;7.65;7.65;7.63;6.70;0.46
65988;SPS30;53592;51.402;6.054;2022-12-29T01:11:02;1.00;1.00;1.00;0.95;7.58;7.58;7.58;7.56;6.64;0.46
65988;SPS30;53592;51.402;6.054;2022-12-29T01:13:30;1.24;1.24;1.24;1.18;9.39;9.39;9.38;9.36;8.22;0.48
65988;SPS30;53592;51.402;6.054;2022-12-29T01:15:56;1.09;1.09;1.09;1.03;8.22;8.22;8.21;8.19;7.19;0.47
65988;SPS30;53592;51.402;6.054;2022-12-29T01:18:23;0.94;0.94;0.94;0.89;7.07;7.07;7.06;7.05;6.19;0.48
65988;SPS30;53592;51.402;6.054;2022-12-29T01:20:49;1.03;1.03;1.03;0.97;7.76;7.76;7.76;7.74;6.80;0.49
65988;SPS30;53592;51.402;6.054;2022-12-29T01:23:15;1.06;1.06;1.06;1.00;7.98;7.98;7.97;7.95;6.99;0.49
65988;SPS30;53592;51.402;6.054;2022-12-29T01:25:41;0.98;0.98;0.98;0.93;7.40;7.40;7.40;7.38;6.48;0.49
65988;SPS30;53592;51.402;6.054;2022-12-29T01:28:06;0.89;0.89;0.89;0.84;6.74;6.74;6.74;6.72;5.90;0.49
65988;SPS30;53592;51.402;6.054;2022-12-29T01:30:36;1.06;1.06;1.06;1.01;8.04;8.04;8.03;8.01;7.04;0.49
65988;SPS30;53592;51.402;6.054;2022-12-29T01:33:02;1.04;1.04;1.04;0.99;7.88;7.87;7.87;7.85;6.90;0.49
65988;SPS30;53592;51.402;6.054;2022-12-29T01:35:28;0.96;0.96;0.96;0.91;7.26;7.26;7.25;7.23;6.35;0.49
65988;SPS30;53592;51.402;6.054;2022-12-29T01:37:53;0.97;0.97;0.97;0.91;7.30;7.30;7.30;7.28;6.39;0.49
65988;SPS30;53592;51.402;6.054;2022-12-29T01:40:19;0.96;0.96;0.96;0.90;7.22;7.22;7.22;7.20;6.32;0.49
65988;SPS30;53592;51.402;6.054;2022-12-29T01:42:45;1.03;1.03;1.03;0.97;7.76;7.76;7.76;7.74;6.80;0.50
65988;SPS30;53592;51.402;6.054;2022-12-29T01:47:38;0.94;0.94;0.94;0.89;7.10;7.10;7.10;7.08;6.22;0.50
65988;SPS30;53592;51.402;6.054;2022-12-29T01:52:44;0.83;0.83;0.83;0.79;6.29;6.29;6.29;6.27;5.51;0.50
65988;SPS30;53592;51.402;6.054;2022-12-29T01:55:20;0.87;0.87;0.87;0.83;6.59;6.59;6.59;6.57;5.77;0.50
65988;SPS30;53592;51.402;6.054;2022-12-29T01:57:48;0.86;0.86;0.86;0.81;6.48;6.48;6.48;6.46;5.68;0.51
65988;SPS30;53592;51.402;6.054;2022-12-29T02:00:18;0.87;0.87;0.87;0.82;6.58;6.58;6.58;6.56;5.76;0.52
65988;SPS30;53592;51.402;6.054;2022-12-29T02:02:48;0.83;0.83;0.83;0.78;6.27;6.27;6.26;6.24;5.48;0.52
65988;SPS30;53592;51.402;6.054;2022-12-29T02:08:05;0.91;0.91;0.91;0.85;6.81;6.80;6.80;6.78;5.95;0.53
65988;SPS30;53592;51.402;6.054;2022-12-29T02:10:31;0.96;0.96;0.95;0.89;7.14;7.14;7.13;7.11;6.23;0.53
65988;SPS30;53592;51.402;6.054;2022-12-29T02:12:59;0.80;0.79;0.79;0.74;5.92;5.92;5.92;5.90;5.17;0.53
65988;SPS30;53592;51.402;6.054;2022-12-29T02:18:26;0.95;0.95;0.94;0.88;7.00;7.00;7.00;6.96;6.10;0.54
65988;SPS30;53592;51.402;6.054;2022-12-29T02:32:03;0.94;0.94;0.92;0.86;6.83;6.83;6.83;6.79;5.94;0.57
65988;SPS30;53592;51.402;6.054;2022-12-29T02:47:55;1.04;1.04;1.02;0.94;7.51;7.50;7.50;7.45;6.51;0.58
65988;SPS30;53592;51.402;6.054;2022-12-29T02:50:40;1.08;1.08;1.06;0.98;7.82;7.82;7.81;7.77;6.79;0.57
65988;SPS30;53592;51.402;6.054;2022-12-29T02:53:16;1.04;1.03;1.02;0.94;7.53;7.53;7.52;7.48;6.55;0.56
65988;SPS30;53592;51.402;6.054;2022-12-29T02:56:04;1.17;1.16;1.14;1.05;8.35;8.35;8.34;8.28;7.24;0.56
65988;SPS30;53592;51.402;6.054;2022-12-29T02:58:30;1.07;1.07;1.05;0.97;7.75;7.75;7.74;7.69;6.73;0.56
65988;SPS30;53592;51.402;6.054;2022-12-29T03:01:09;1.00;1.00;0.99;0.92;7.31;7.31;7.30;7.26;6.36;0.54
65988;SPS30;53592;51.402;6.054;2022-12-29T03:15:33;1.04;1.03;1.01;0.93;7.42;7.42;7.41;7.36;6.43;0.57
65988;SPS30;53592;51.402;6.054;2022-12-29T03:18:28;0.97;0.96;0.94;0.87;6.94;6.94;6.93;6.89;6.02;0.56
65988;SPS30;53592;51.402;6.054;2022-12-29T03:21:22;0.91;0.90;0.88;0.82;6.52;6.52;6.51;6.47;5.65;0.54
65988;SPS30;53592;51.402;6.054;2022-12-29T03:24:16;0.67;0.67;0.66;0.60;4.82;4.82;4.81;4.78;4.17;0.54
65988;SPS30;53592;51.402;6.054;2022-12-29T03:26:45;0.62;0.62;0.60;0.55;4.40;4.40;4.39;4.36;3.80;0.56
65988;SPS30;53592;51.402;6.054;2022-12-29T03:29:14;0.65;0.64;0.62;0.56;4.45;4.44;4.44;4.39;3.82;0.57
65988;SPS30;53592;51.402;6.054;2022-12-29T03:31:44;0.61;0.61;0.58;0.52;4.15;4.15;4.14;4.10;3.56;0.58
65988;SPS30;53592;51.402;6.054;2022-12-29T03:34:15;0.52;0.52;0.49;0.44;3.49;3.49;3.48;3.44;2.99;0.58
65988;SPS30;53592;51.402;6.054;2022-12-29T03:36:50;0.49;0.48;0.46;0.40;3.20;3.20;3.19;3.15;2.72;0.58
65988;SPS30;53592;51.402;6.054;2022-12-29T03:39:22;0.49;0.48;0.45;0.39;3.14;3.14;3.13;3.08;2.66;0.59
65988;SPS30;53592;51.402;6.054;2022-12-29T03:41:50;0.50;0.50;0.46;0.40;3.17;3.17;3.16;3.11;2.68;0.59
65988;SPS30;53592;51.402;6.054;2022-12-29T03:44:30;0.51;0.50;0.47;0.40;3.23;3.23;3.22;3.17;2.73;0.59
65988;SPS30;53592;51.402;6.054;2022-12-29T03:47:01;0.46;0.45;0.42;0.36;2.87;2.87;2.86;2.81;2.42;0.60
65988;SPS30;53592;51.402;6.054;2022-12-29T03:49:27;0.54;0.53;0.48;0.41;3.27;3.27;3.26;3.20;2.74;0.61
65988;SPS30;53592;51.402;6.054;2022-12-29T03:51:53;0.47;0.47;0.43;0.36;2.86;2.86;2.85;2.79;2.39;0.61
65988;SPS30;53592;51.402;6.054;2022-12-29T03:54:18;0.44;0.43;0.39;0.32;2.59;2.59;2.58;2.52;2.15;0.61
65988;SPS30;53592;51.402;6.054;2022-12-29T03:56:44;0.52;0.52;0.47;0.38;3.07;3.06;3.05;2.98;2.54;0.62
65988;SPS30;53592;51.402;6.054;2022-12-29T03:59:09;0.43;0.42;0.38;0.31;2.45;2.45;2.43;2.37;2.02;0.64
65988;SPS30;53592;51.402;6.054;2022-12-29T04:01:35;0.35;0.34;0.30;0.24;1.95;1.95;1.94;1.89;1.61;0.65
65988;SPS30;53592;51.402;6.054;2022-12-29T04:04:00;0.46;0.45;0.40;0.32;2.55;2.55;2.54;2.47;2.09;0.66
65988;SPS30;53592;51.402;6.054;2022-12-29T04:06:26;0.50;0.48;0.43;0.33;2.68;2.67;2.66;2.58;2.17;0.67
65988;SPS30;53592;51.402;6.054;2022-12-29T04:08:51;0.40;0.39;0.34;0.26;2.07;2.07;2.06;1.99;1.66;0.68
65988;SPS30;53592;51.402;6.054;2022-12-29T04:11:17;0.33;0.32;0.28;0.21;1.67;1.67;1.66;1.60;1.33;0.69
65988;SPS30;53592;51.402;6.054;2022-12-29T04:13:42;0.38;0.37;0.32;0.24;1.90;1.89;1.88;1.81;1.50;0.69
65988;SPS30;53592;51.402;6.054;2022-12-29T04:16:07;0.42;0.41;0.35;0.26;2.11;2.11;2.09;2.01;1.67;0.69
65988;SPS30;53592;51.402;6.054;2022-12-29T04:18:33;0.46;0.45;0.38;0.29;2.30;2.30;2.28;2.19;1.82;0.69
65988;SPS30;53592;51.402;6.054;2022-12-29T04:20:59;0.51;0.49;0.42;0.31;2.52;2.52;2.50;2.41;2.00;0.69
65988;SPS30;53592;51.402;6.054;2022-12-29T04:23:24;0.52;0.51;0.43;0.32;2.55;2.55;2.53;2.43;2.01;0.70
65988;SPS30;53592;51.402;6.054;2022-12-29T04:25:50;0.48;0.47;0.40;0.30;2.38;2.37;2.35;2.26;1.87;0.70
65988;SPS30;53592;51.402;6.054;2022-12-29T04:28:16;0.49;0.47;0.40;0.29;2.33;2.33;2.31;2.21;1.83;0.70
65988;SPS30;53592;51.402;6.054;2022-12-29T04:30:42;0.57;0.55;0.46;0.33;2.63;2.63;2.60;2.48;2.04;0.72
65988;SPS30;53592;51.402;6.054;2022-12-29T04:33:08;0.92;0.89;0.73;0.51;4.11;4.11;4.07;3.86;3.15;0.73
65988;SPS30;53592;51.402;6.054;2022-12-29T04:35:34;0.59;0.57;0.47;0.33;2.63;2.63;2.60;2.47;2.01;0.73
65988;SPS30;53592;51.402;6.054;2022-12-29T04:38:00;0.73;0.71;0.57;0.39;3.12;3.12;3.08;2.91;2.35;0.75
65988;SPS30;53592;51.402;6.054;2022-12-29T04:40:26;0.72;0.69;0.56;0.37;3.01;3.01;2.97;2.80;2.25;0.75
65988;SPS30;53592;51.402;6.054;2022-12-29T04:42:52;0.80;0.77;0.62;0.41;3.29;3.29;3.25;3.05;2.44;0.76
65988;SPS30;53592;51.402;6.054;2022-12-29T04:45:18;0.82;0.78;0.63;0.41;3.32;3.32;3.28;3.07;2.45;0.75
65988;SPS30;53592;51.402;6.054;2022-12-29T04:47:43;1.05;1.01;0.81;0.54;4.32;4.31;4.26;4.00;3.20;0.74
65988;SPS30;53592;51.402;6.054;2022-12-29T04:50:09;0.98;0.94;0.75;0.50;4.00;3.99;3.95;3.70;2.96;0.75
65988;SPS30;53592;51.402;6.054;2022-12-29T04:52:35;0.65;0.62;0.50;0.33;2.63;2.62;2.59;2.43;1.93;0.75
65988;SPS30;53592;51.402;6.054;2022-12-29T04:55:01;0.90;0.86;0.69;0.45;3.60;3.59;3.55;3.32;2.64;0.76
65988;SPS30;53592;51.402;6.054;2022-12-29T04:57:26;0.72;0.69;0.55;0.36;2.90;2.89;2.85;2.67;2.13;0.75
65988;SPS30;53592;51.402;6.054;2022-12-29T04:59:52;0.74;0.71;0.57;0.37;2.97;2.96;2.92;2.74;2.17;0.76
65988;SPS30;53592;51.402;6.054;2022-12-29T05:02:18;0.71;0.68;0.54;0.35;2.81;2.81;2.77;2.59;2.06;0.76
65988;SPS30;53592;51.402;6.054;2022-12-29T05:04:43;0.65;0.63;0.50;0.33;2.62;2.62;2.58;2.42;1.92;0.76
65988;SPS30;53592;51.402;6.054;2022-12-29T05:07:09;0.58;0.56;0.45;0.29;2.37;2.37;2.34;2.20;1.75;0.76
65988;SPS30;53592;51.402;6.054;2022-12-29T05:09:34;0.54;0.52;0.42;0.28;2.26;2.26;2.23;2.10;1.69;0.75
65988;SPS30;53592;51.402;6.054;2022-12-29T05:12:00;0.62;0.59;0.48;0.32;2.62;2.61;2.58;2.44;1.96;0.74
65988;SPS30;53592;51.402;6.054;2022-12-29T05:14:26;0.70;0.67;0.55;0.37;2.99;2.98;2.95;2.79;2.25;0.73
65988;SPS30;53592;51.402;6.054;2022-12-29T05:16:51;0.87;0.84;0.68;0.47;3.76;3.76;3.72;3.52;2.85;0.73
65988;SPS30;53592;51.402;6.054;2022-12-29T05:19:17;0.79;0.77;0.63;0.45;3.58;3.58;3.54;3.37;2.75;0.71
65988;SPS30;53592;51.402;6.054;2022-12-29T05:21:43;0.78;0.76;0.63;0.44;3.58;3.57;3.54;3.37;2.76;0.70
65988;SPS30;53592;51.402;6.054;2022-12-29T05:24:08;0.76;0.73;0.61;0.43;3.49;3.48;3.45;3.29;2.69;0.69
65988;SPS30;53592;51.402;6.054;2022-12-29T05:26:34;0.96;0.93;0.77;0.55;4.43;4.42;4.38;4.17;3.42;0.69
65988;SPS30;53592;51.402;6.054;2022-12-29T05:29:00;1.04;1.01;0.85;0.62;4.98;4.98;4.93;4.72;3.90;0.68
65988;SPS30;53592;51.402;6.054;2022-12-29T05:31:26;0.90;0.88;0.74;0.55;4.39;4.38;4.35;4.17;3.45;0.68
65988;SPS30;53592;51.402;6.054;2022-12-29T05:33:52;1.05;1.02;0.86;0.63;5.08;5.07;5.03;4.82;3.99;0.68
65988;SPS30;53592;51.402;6.054;2022-12-29T05:36:18;1.17;1.13;0.95;0.69;5.53;5.52;5.48;5.24;4.32;0.69
65988;SPS30;53592;51.402;6.054;2022-12-29T05:38:43;1.23;1.19;1.00;0.72;5.81;5.80;5.75;5.49;4.53;0.69
65988;SPS30;53592;51.402;6.054;2022-12-29T05:41:09;1.11;1.07;0.89;0.64;5.16;5.15;5.10;4.87;4.00;0.70
65988;SPS30;53592;51.402;6.054;2022-12-29T05:43:34;1.06;1.03;0.86;0.61;4.91;4.90;4.86;4.63;3.80;0.71
65988;SPS30;53592;51.402;6.054;2022-12-29T05:46:00;1.21;1.17;0.97;0.68;5.49;5.48;5.43;5.16;4.22;0.73
65988;SPS30;53592;51.402;6.054;2022-12-29T05:48:27;1.36;1.31;1.08;0.75;6.00;5.99;5.93;5.63;4.57;0.74
65988;SPS30;53592;51.402;6.054;2022-12-29T05:50:53;1.33;1.28;1.05;0.72;5.82;5.81;5.75;5.45;4.41;0.74
65988;SPS30;53592;51.402;6.054;2022-12-29T05:53:18;1.22;1.17;0.97;0.67;5.41;5.40;5.35;5.08;4.13;0.74
65988;SPS30;53592;51.402;6.054;2022-12-29T05:55:46;1.33;1.28;1.05;0.72;5.76;5.75;5.69;5.38;4.36;0.75
65988;SPS30;53592;51.402;6.054;2022-12-29T05:58:12;1.61;1.55;1.27;0.87;7.00;6.98;6.91;6.54;5.30;0.76
65988;SPS30;53592;51.402;6.054;2022-12-29T06:00:41;1.42;1.37;1.12;0.77;6.18;6.17;6.11;5.78;4.68;0.76
65988;SPS30;53592;51.402;6.054;2022-12-29T06:03:07;1.31;1.27;1.04;0.71;5.75;5.74;5.68;5.38;4.36;0.74
65988;SPS30;53592;51.402;6.054;2022-12-29T06:05:32;1.41;1.36;1.11;0.75;6.07;6.06;5.99;5.67;4.58;0.75
65988;SPS30;53592;51.402;6.054;2022-12-29T06:07:58;1.33;1.28;1.04;0.70;5.65;5.63;5.57;5.26;4.24;0.76
65988;SPS30;53592;51.402;6.054;2022-12-29T06:10:23;1.49;1.44;1.16;0.78;6.31;6.30;6.23;5.88;4.73;0.77
65988;SPS30;53592;51.402;6.054;2022-12-29T06:12:49;1.28;1.23;1.00;0.68;5.45;5.44;5.38;5.08;4.09;0.76
65988;SPS30;53592;51.402;6.054;2022-12-29T06:15:14;1.32;1.27;1.02;0.67;5.41;5.40;5.34;5.01;4.01;0.78
65988;SPS30;53592;51.402;6.054;2022-12-29T06:17:40;1.53;1.47;1.18;0.78;6.32;6.31;6.23;5.86;4.69;0.77
65988;SPS30;53592;51.402;6.054;2022-12-29T06:20:06;1.33;1.28;1.03;0.68;5.48;5.47;5.40;5.08;4.06;0.78
65988;SPS30;53592;51.402;6.054;2022-12-29T06:22:32;1.56;1.50;1.19;0.76;6.17;6.15;6.07;5.67;4.49;0.79
65988;SPS30;53592;51.402;6.054;2022-12-29T06:24:58;1.31;1.26;0.99;0.63;5.09;5.08;5.01;4.67;3.68;0.79
65988;SPS30;53592;51.402;6.054;2022-12-29T06:27:23;1.55;1.49;1.18;0.75;6.07;6.05;5.97;5.57;4.40;0.78
65988;SPS30;53592;51.402;6.054;2022-12-29T06:29:49;1.53;1.47;1.16;0.73;5.89;5.87;5.79;5.39;4.24;0.79
65988;SPS30;53592;51.402;6.054;2022-12-29T06:32:15;1.70;1.63;1.28;0.80;6.50;6.48;6.39;5.94;4.66;0.79
65988;SPS30;53592;51.402;6.054;2022-12-29T06:34:40;1.35;1.30;1.02;0.65;5.23;5.22;5.15;4.79;3.78;0.79
65988;SPS30;53592;51.402;6.054;2022-12-29T06:37:06;1.33;1.27;1.00;0.63;5.08;5.07;5.00;4.65;3.66;0.80
65988;SPS30;53592;51.402;6.054;2022-12-29T06:39:33;1.57;1.50;1.18;0.74;5.95;5.94;5.86;5.44;4.27;0.80
65988;SPS30;53592;51.402;6.054;2022-12-29T06:41:58;1.61;1.54;1.21;0.75;6.05;6.03;5.94;5.51;4.31;0.80
65988;SPS30;53592;51.402;6.054;2022-12-29T06:44:23;1.44;1.38;1.08;0.66;5.36;5.35;5.27;4.88;3.81;0.80
65988;SPS30;53592;51.402;6.054;2022-12-29T06:46:49;1.86;1.78;1.40;0.87;7.02;7.01;6.91;6.41;5.02;0.81
65988;SPS30;53592;51.402;6.054;2022-12-29T06:49:16;1.53;1.46;1.15;0.72;5.82;5.80;5.72;5.32;4.17;0.81
65988;SPS30;53592;51.402;6.054;2022-12-29T06:51:41;1.76;1.69;1.32;0.81;6.54;6.53;6.43;5.95;4.63;0.83
65988;SPS30;53592;51.402;6.054;2022-12-29T06:54:07;1.66;1.59;1.24;0.77;6.21;6.19;6.10;5.66;4.42;0.82
65988;SPS30;53592;51.402;6.054;2022-12-29T06:56:32;1.60;1.53;1.20;0.75;6.09;6.08;6.00;5.57;4.37;0.81
65988;SPS30;53592;51.402;6.054;2022-12-29T06:58:58;1.62;1.56;1.23;0.78;6.29;6.27;6.19;5.77;4.55;0.80
65988;SPS30;53592;51.402;6.054;2022-12-29T07:01:26;1.53;1.47;1.15;0.73;5.86;5.84;5.76;5.36;4.21;0.81
65988;SPS30;53592;51.402;6.054;2022-12-29T07:03:51;1.50;1.44;1.13;0.70;5.68;5.66;5.58;5.18;4.06;0.81
65988;SPS30;53592;51.402;6.054;2022-12-29T07:06:17;1.70;1.63;1.28;0.81;6.51;6.50;6.41;5.96;4.68;0.81
65988;SPS30;53592;51.402;6.054;2022-12-29T07:08:43;1.58;1.51;1.18;0.73;5.90;5.88;5.80;5.37;4.20;0.82
65988;SPS30;53592;51.402;6.054;2022-12-29T07:11:08;1.60;1.54;1.21;0.76;6.11;6.09;6.01;5.59;4.38;0.82
65988;SPS30;53592;51.402;6.054;2022-12-29T07:13:34;1.82;1.75;1.38;0.87;7.04;7.02;6.93;6.45;5.08;0.81
65988;SPS30;53592;51.402;6.054;2022-12-29T07:16:04;1.74;1.67;1.31;0.81;6.57;6.55;6.46;5.99;4.69;0.82
65988;SPS30;53592;51.402;6.054;2022-12-29T07:18:33;1.79;1.71;1.33;0.82;6.61;6.59;6.49;6.00;4.67;0.82
65988;SPS30;53592;51.402;6.054;2022-12-29T07:20:59;1.58;1.52;1.18;0.72;5.84;5.83;5.74;5.31;4.13;0.82
65988;SPS30;53592;51.402;6.054;2022-12-29T07:23:25;1.94;1.86;1.45;0.90;7.28;7.27;7.16;6.64;5.19;0.81
65988;SPS30;53592;51.402;6.054;2022-12-29T07:28:30;2.29;2.19;1.71;1.05;8.47;8.44;8.32;7.70;5.99;0.81
65988;SPS30;53592;51.402;6.054;2022-12-29T07:30:57;1.75;1.68;1.31;0.81;6.56;6.54;6.45;5.97;4.66;0.81
65988;SPS30;53592;51.402;6.054;2022-12-29T07:33:23;2.30;2.21;1.71;1.03;8.34;8.31;8.19;7.55;5.84;0.82
65988;SPS30;53592;51.402;6.054;2022-12-29T07:35:48;2.11;2.02;1.56;0.93;7.55;7.53;7.41;6.82;5.26;0.83
65988;SPS30;53592;51.402;6.054;2022-12-29T07:38:14;2.33;2.23;1.72;1.02;8.28;8.26;8.13;7.47;5.75;0.83
65988;SPS30;53592;51.402;6.054;2022-12-29T07:40:40;2.16;2.06;1.57;0.92;7.44;7.41;7.29;6.67;5.08;0.83
65988;SPS30;53592;51.402;6.054;2022-12-29T07:43:05;2.45;2.34;1.78;1.04;8.39;8.36;8.22;7.51;5.71;0.83
65988;SPS30;53592;51.402;6.054;2022-12-29T07:45:31;2.78;2.65;2.02;1.16;9.42;9.40;9.23;8.42;6.39;0.84
65988;SPS30;53592;51.402;6.054;2022-12-29T07:47:57;2.30;2.19;1.66;0.95;7.70;7.68;7.54;6.86;5.19;0.84
65988;SPS30;53592;51.402;6.054;2022-12-29T07:50:22;2.70;2.57;1.94;1.09;8.85;8.82;8.66;7.85;5.88;0.86
65988;SPS30;53592;51.402;6.054;2022-12-29T07:52:48;2.77;2.64;1.98;1.11;8.99;8.96;8.80;7.96;5.95;0.86
65988;SPS30;53592;51.402;6.054;2022-12-29T07:55:14;3.23;3.07;2.28;1.23;9.99;9.96;9.76;8.75;6.44;0.88
65988;SPS30;53592;51.402;6.054;2022-12-29T07:57:42;3.04;2.90;2.17;1.19;9.69;9.66;9.47;8.54;6.34;0.86
65988;SPS30;53592;51.402;6.054;2022-12-29T08:00:08;2.71;2.58;1.92;1.05;8.55;8.52;8.35;7.52;5.56;0.87
65988;SPS30;53592;51.402;6.054;2022-12-29T08:02:35;2.78;2.65;1.97;1.08;8.74;8.71;8.54;7.68;5.68;0.87
65988;SPS30;53592;51.402;6.054;2022-12-29T08:05:01;3.09;2.93;2.17;1.16;9.44;9.41;9.22;8.25;6.04;0.89
65988;SPS30;53592;51.402;6.054;2022-12-29T08:07:26;2.81;2.67;1.97;1.05;8.53;8.50;8.32;7.44;5.42;0.88
65988;SPS30;53592;51.402;6.054;2022-12-29T08:09:52;2.78;2.65;1.96;1.05;8.51;8.48;8.31;7.43;5.44;0.87
65988;SPS30;53592;51.402;6.054;2022-12-29T08:12:17;2.71;2.57;1.89;0.99;8.04;8.01;7.84;6.98;5.05;0.89
65988;SPS30;53592;51.402;6.054;2022-12-29T08:14:43;2.94;2.79;2.04;1.04;8.47;8.43;8.24;7.28;5.20;0.91
65988;SPS30;53592;51.402;6.054;2022-12-29T08:17:09;3.24;3.07;2.23;1.12;9.16;9.12;8.91;7.84;5.56;0.93
65988;SPS30;53592;51.402;6.054;2022-12-29T08:19:35;3.05;2.89;2.10;1.07;8.68;8.65;8.45;7.45;5.29;0.92
65988;SPS30;53592;51.402;6.054;2022-12-29T08:22:01;3.11;2.95;2.15;1.10;8.96;8.92;8.72;7.71;5.50;0.92
65988;SPS30;53592;51.402;6.054;2022-12-29T08:24:27;3.37;3.19;2.33;1.18;9.63;9.59;9.37;8.27;5.89;0.91
65988;SPS30;53592;51.402;6.054;2022-12-29T08:26:52;2.87;2.73;2.00;1.04;8.44;8.41;8.23;7.30;5.26;0.90
65988;SPS30;53592;51.402;6.054;2022-12-29T08:29:18;3.32;3.15;2.29;1.17;9.53;9.50;9.28;8.20;5.85;0.91
65988;SPS30;53592;51.402;6.054;2022-12-29T08:31:44;2.91;2.76;2.02;1.03;8.42;8.39;8.20;7.25;5.18;0.92
65988;SPS30;53592;51.402;6.054;2022-12-29T08:34:10;3.23;3.06;2.24;1.15;9.34;9.30;9.09;8.05;5.75;0.93
65988;SPS30;53592;51.402;6.054;2022-12-29T08:36:36;3.03;2.87;2.11;1.09;8.90;8.86;8.67;7.69;5.54;0.94
65988;SPS30;53592;51.402;6.054;2022-12-29T08:39:01;3.00;2.85;2.09;1.09;8.89;8.85;8.66;7.70;5.57;0.93
65988;SPS30;53592;51.402;6.054;2022-12-29T08:41:28;2.90;2.75;2.02;1.06;8.58;8.55;8.36;7.43;5.37;0.93
65988;SPS30;53592;51.402;6.054;2022-12-29T08:43:53;3.24;3.08;2.29;1.24;10.10;10.06;9.86;8.86;6.53;0.91
65988;SPS30;53592;51.402;6.054;2022-12-29T08:46:19;3.08;2.94;2.20;1.21;9.85;9.82;9.63;8.69;6.46;0.90
65988;SPS30;53592;51.402;6.054;2022-12-29T08:48:44;2.97;2.83;2.13;1.20;9.72;9.69;9.51;8.62;6.46;0.88
65988;SPS30;53592;51.402;6.054;2022-12-29T08:51:10;2.85;2.72;2.04;1.15;9.30;9.27;9.10;8.25;6.18;0.87
65988;SPS30;53592;51.402;6.054;2022-12-29T08:53:36;3.13;2.98;2.23;1.23;10.00;9.97;9.78;8.83;6.57;0.89
65988;SPS30;53592;51.402;6.054;2022-12-29T08:56:01;2.76;2.63;1.96;1.07;8.72;8.69;8.52;7.67;5.68;0.90
65988;SPS30;53592;51.402;6.054;2022-12-29T08:58:27;2.85;2.71;2.02;1.11;9.01;8.98;8.80;7.93;5.88;0.90
65988;SPS30;53592;51.402;6.054;2022-12-29T09:00:53;2.83;2.69;2.00;1.09;8.86;8.83;8.66;7.79;5.75;0.90
65988;SPS30;53592;51.402;6.054;2022-12-29T09:03:20;3.24;3.08;2.29;1.25;10.12;10.09;9.89;8.89;6.56;0.91
65988;SPS30;53592;51.402;6.054;2022-12-29T09:05:48;2.97;2.82;2.08;1.11;8.98;8.95;8.76;7.82;5.70;0.92
65988;SPS30;53592;51.402;6.054;2022-12-29T09:08:15;2.94;2.79;2.06;1.10;8.96;8.93;8.74;7.82;5.72;0.91
65988;SPS30;53592;51.402;6.054;2022-12-29T09:10:41;3.08;2.93;2.19;1.21;9.81;9.78;9.59;8.65;6.43;0.88
65988;SPS30;53592;51.402;6.054;2022-12-29T09:13:08;2.52;2.40;1.80;1.01;8.18;8.15;8.00;7.24;5.42;0.88
65988;SPS30;53592;51.402;6.054;2022-12-29T09:15:33;2.76;2.63;1.98;1.11;9.03;9.00;8.84;8.01;6.01;0.87
65988;SPS30;53592;51.402;6.054;2022-12-29T09:17:59;2.76;2.63;1.99;1.13;9.19;9.16;9.00;8.18;6.17;0.87
65988;SPS30;53592;51.402;6.054;2022-12-29T09:20:24;3.13;2.98;2.26;1.28;10.41;10.38;10.20;9.27;6.99;0.87
65988;SPS30;53592;51.402;6.054;2022-12-29T09:22:50;2.76;2.63;1.99;1.14;9.24;9.21;9.05;8.23;6.22;0.87
65988;SPS30;53592;51.402;6.054;2022-12-29T09:25:16;3.25;3.09;2.32;1.29;10.44;10.40;10.20;9.22;6.87;0.88
65988;SPS30;53592;51.402;6.054;2022-12-29T09:27:41;3.20;3.04;2.26;1.21;9.85;9.82;9.62;8.62;6.32;0.91
65988;SPS30;53592;51.402;6.054;2022-12-29T09:30:08;3.12;2.96;2.19;1.17;9.54;9.50;9.31;8.33;6.09;0.91
65988;SPS30;53592;51.402;6.054;2022-12-29T09:32:35;3.37;3.20;2.35;1.22;9.95;9.91;9.70;8.62;6.22;0.92
65988;SPS30;53592;51.402;6.054;2022-12-29T09:35:01;3.20;3.04;2.23;1.16;9.44;9.40;9.20;8.17;5.89;0.92
65988;SPS30;53592;51.402;6.054;2022-12-29T09:37:29;3.12;2.96;2.17;1.13;9.22;9.18;8.98;7.98;5.76;0.92
65988;SPS30;53592;51.402;6.054;2022-12-29T09:39:55;2.91;2.77;2.03;1.07;8.67;8.64;8.45;7.52;5.45;0.92
65988;SPS30;53592;51.402;6.054;2022-12-29T09:44:56;3.00;2.86;2.13;1.17;9.48;9.45;9.26;8.34;6.17;0.89
65988;SPS30;53592;51.402;6.054;2022-12-29T09:47:44;2.87;2.73;2.04;1.12;9.06;9.03;8.86;7.97;5.91;0.89
65988;SPS30;53592;51.402;6.054;2022-12-29T09:50:25;2.65;2.53;1.89;1.04;8.47;8.44;8.28;7.46;5.55;0.88
65988;SPS30;53592;51.402;6.054;2022-12-29T09:52:58;2.93;2.79;2.09;1.15;9.32;9.29;9.11;8.22;6.10;0.89
65988;SPS30;53592;51.402;6.054;2022-12-29T09:55:36;3.62;3.44;2.55;1.37;11.10;11.06;10.83;9.69;7.10;0.91
65988;SPS30;53592;51.402;6.054;2022-12-29T09:58:11;3.31;3.15;2.31;1.21;9.80;9.76;9.55;8.49;6.13;0.93
65988;SPS30;53592;51.402;6.054;2022-12-29T10:03:40;3.39;3.21;2.35;1.21;9.82;9.78;9.56;8.46;6.06;0.96
65988;SPS30;53592;51.402;6.054;2022-12-29T10:20:38;3.54;3.36;2.47;1.29;10.48;10.44;10.21;9.08;6.56;0.91
65988;SPS30;53592;51.402;6.054;2022-12-29T10:23:31;2.93;2.78;2.04;1.05;8.53;8.50;8.31;7.36;5.28;0.92
65988;SPS30;53592;51.402;6.054;2022-12-29T10:26:08;3.56;3.38;2.45;1.24;10.09;10.05;9.82;8.65;6.13;0.93
65988;SPS30;53592;51.402;6.054;2022-12-29T10:34:10;3.59;3.41;2.49;1.28;10.42;10.38;10.15;8.98;6.43;0.93
65988;SPS30;53592;51.402;6.054;2022-12-29T10:36:52;3.65;3.47;2.55;1.34;10.88;10.84;10.61;9.45;6.84;0.92
65988;SPS30;53592;51.402;6.054;2022-12-29T10:42:18;3.42;3.24;2.37;1.21;9.87;9.84;9.61;8.50;6.08;0.93
65988;SPS30;53592;51.402;6.054;2022-12-29T10:44:58;3.25;3.09;2.25;1.14;9.30;9.26;9.05;7.98;5.68;0.93
65988;SPS30;53592;51.402;6.054;2022-12-29T10:47:26;3.27;3.10;2.28;1.19;9.67;9.64;9.43;8.38;6.05;0.91
65988;SPS30;53592;51.402;6.054;2022-12-29T10:49:56;3.53;3.36;2.47;1.31;10.63;10.59;10.37;9.25;6.72;0.90
65988;SPS30;53592;51.402;6.054;2022-12-29T10:52:25;3.29;3.12;2.29;1.20;9.74;9.70;9.49;8.44;6.09;0.90
65988;SPS30;53592;51.402;6.054;2022-12-29T10:54:55;3.62;3.43;2.53;1.33;10.79;10.75;10.52;9.36;6.78;0.90
65988;SPS30;53592;51.402;6.054;2022-12-29T10:57:27;3.56;3.38;2.46;1.25;10.15;10.11;9.88;8.71;6.19;0.92
65988;SPS30;53592;51.402;6.054;2022-12-29T10:59:59;3.89;3.69;2.66;1.31;10.69;10.64;10.38;9.08;6.34;0.93
65988;SPS30;53592;51.402;6.054;2022-12-29T11:08:12;3.18;3.01;2.17;1.08;8.78;8.74;8.53;7.47;5.23;0.93
65988;SPS30;53592;51.402;6.054;2022-12-29T11:11:05;3.73;3.53;2.57;1.31;10.64;10.60;10.36;9.14;6.50;0.91